Time;durP1;ratioP1;P1;durP2;ratioP2;P2;SDS_P1;SDS_P2;PMS_P1;PMS_P2;Temp;Humidity;BMP_temperature;BMP_pressure;BME280_temperature;BME280_humidity;BME280_pressure;Samples;Min_cycle;Max_cycle;Signal;HPM_P1;HPM_P2
2023/01/25 00:01:52;;;;;;;46.73;33.63;;;1.90;78.60;;;;;;5050634;28;20443;-76
2023/01/25 00:04:19;;;;;;;47.13;31.93;;;1.90;78.70;;;;;;5034138;28;20519;-76
2023/01/25 00:06:45;;;;;;;45.40;31.23;;;2.00;78.90;;;;;;5050753;28;20041;-76
2023/01/25 00:09:11;;;;;;;50.83;35.37;;;2.00;79.00;;;;;;5050620;28;20084;-76
2023/01/25 00:11:36;;;;;;;46.63;33.43;;;2.00;79.10;;;;;;5049796;28;20084;-76
2023/01/25 00:14:04;;;;;;;48.40;34.17;;;2.00;79.10;;;;;;5018069;28;20106;-77
2023/01/25 00:16:30;;;;;;;50.23;35.03;;;2.10;79.10;;;;;;5051171;28;20468;-77
2023/01/25 00:18:56;;;;;;;48.33;35.00;;;2.20;79.10;;;;;;5050965;28;20041;-77
2023/01/25 00:21:23;;;;;;;47.20;33.00;;;2.10;78.90;;;;;;5050541;28;20489;-76
2023/01/25 00:23:49;;;;;;;45.77;31.93;;;2.10;78.90;;;;;;5050894;28;20108;-76
2023/01/25 00:26:15;;;;;;;42.80;30.33;;;2.10;78.80;;;;;;5050722;28;20071;-76
2023/01/25 00:28:41;;;;;;;46.00;32.70;;;2.30;78.80;;;;;;5034260;28;20072;-76
2023/01/25 00:31:14;;;;;;;46.90;32.93;;;2.20;78.80;;;;;;5050931;28;20067;-76
2023/01/25 00:33:50;;;;;;;51.60;35.40;;;2.20;78.70;;;;;;5034792;28;20373;-76
2023/01/25 00:36:37;;;;;;;49.93;35.17;;;2.20;78.40;;;;;;5050880;28;20044;-76
2023/01/25 00:39:11;;;;;;;48.50;34.87;;;2.20;77.90;;;;;;5050969;28;20037;-76
2023/01/25 00:41:36;;;;;;;49.43;33.53;;;2.10;77.90;;;;;;5034028;28;20090;-76
2023/01/25 00:44:02;;;;;;;48.90;34.60;;;2.10;77.90;;;;;;5034260;28;20438;-76
2023/01/25 00:46:28;;;;;;;52.13;35.27;;;2.10;77.70;;;;;;5050673;28;20064;-76
2023/01/25 00:48:54;;;;;;;49.45;33.45;;;2.10;77.60;;;;;;5034712;28;20064;-76
2023/01/25 00:51:21;;;;;;;49.28;33.72;;;2.30;77.70;;;;;;5050448;28;20041;-76
2023/01/25 00:53:46;;;;;;;51.20;34.40;;;2.00;77.40;;;;;;5034206;28;20041;-76
2023/01/25 00:56:12;;;;;;;52.73;35.60;;;2.00;77.40;;;;;;5017668;28;20045;-76
2023/01/25 00:58:39;;;;;;;50.63;34.27;;;2.00;77.40;;;;;;5017721;28;20171;-76
2023/01/25 01:01:04;;;;;;;50.13;34.47;;;2.00;77.30;;;;;;5034161;28;20036;-76
2023/01/25 01:03:31;;;;;;;49.27;33.87;;;2.00;77.20;;;;;;5033740;28;20044;-76
2023/01/25 01:06:02;;;;;;;49.07;33.43;;;2.00;77.20;;;;;;5034247;28;20124;-75
2023/01/25 01:08:28;;;;;;;48.60;34.13;;;2.00;77.30;;;;;;5051183;28;20462;-76
2023/01/25 01:11:01;;;;;;;49.73;33.90;;;2.10;77.30;;;;;;5037471;28;20136;-75
2023/01/25 01:13:28;;;;;;;51.77;35.63;;;1.90;77.20;;;;;;5037512;28;20033;-76
2023/01/25 01:15:55;;;;;;;49.50;33.90;;;1.90;77.10;;;;;;5037653;28;20041;-76
2023/01/25 01:18:21;;;;;;;48.83;33.73;;;1.80;77.00;;;;;;5053615;28;20041;-76
2023/01/25 01:20:48;;;;;;;52.80;35.00;;;1.80;77.10;;;;;;5054188;28;20052;-76
2023/01/25 01:23:14;;;;;;;50.60;35.10;;;1.80;77.10;;;;;;5037417;28;20036;-76
2023/01/25 01:25:40;;;;;;;52.30;34.43;;;1.80;77.20;;;;;;5020117;28;20145;-76
2023/01/25 01:28:05;;;;;;;51.90;34.63;;;1.80;77.50;;;;;;5054047;28;20399;-76
2023/01/25 01:30:31;;;;;;;53.70;35.63;;;1.80;77.00;;;;;;5053684;28;20065;-76
2023/01/25 01:32:57;;;;;;;48.50;33.90;;;1.80;77.00;;;;;;5037438;28;20040;-76
2023/01/25 01:35:22;;;;;;;51.07;34.63;;;1.70;77.00;;;;;;5037088;28;20041;-76
2023/01/25 01:37:48;;;;;;;51.50;34.27;;;1.70;77.00;;;;;;5053987;28;20049;-75
2023/01/25 01:40:15;;;;;;;45.87;32.97;;;1.70;77.00;;;;;;5037060;28;20473;-76
2023/01/25 01:42:57;;;;;;;47.60;32.80;;;1.70;77.10;;;;;;5036799;28;20037;-76
2023/01/25 01:45:48;;;;;;;48.80;33.70;;;1.60;77.00;;;;;;5048247;28;20040;-76
2023/01/25 01:48:32;;;;;;;48.20;31.63;;;1.60;77.10;;;;;;5036903;28;20036;-76
2023/01/25 01:51:18;;;;;;;37.88;25.27;;;1.60;77.20;;;;;;5037258;28;20405;-76
2023/01/25 01:53:53;;;;;;;49.67;32.53;;;1.50;77.20;;;;;;5036563;28;20058;-76
2023/01/25 01:56:25;;;;;;;50.07;33.60;;;1.50;77.40;;;;;;5036565;28;20075;-76
2023/01/25 01:58:53;;;;;;;52.27;34.77;;;1.50;77.40;;;;;;5053147;28;20146;-76
2023/01/25 02:01:19;;;;;;;50.67;33.37;;;1.50;77.40;;;;;;5053109;28;20374;-76
2023/01/25 02:03:45;;;;;;;49.90;32.97;;;1.50;77.30;;;;;;5036453;28;20056;-76
2023/01/25 02:06:49;;;;;;;48.90;32.47;;;1.70;77.40;;;;;;5053323;28;20484;-76
2023/01/25 02:09:21;;;;;;;46.20;31.30;;;1.50;77.40;;;;;;5046306;28;20504;-76
2023/01/25 02:11:50;;;;;;;50.17;32.27;;;1.50;77.60;;;;;;5052403;28;20079;-76
2023/01/25 02:14:16;;;;;;;49.10;32.60;;;1.50;77.80;;;;;;5052113;28;20045;-76
2023/01/25 02:16:42;;;;;;;47.40;31.00;;;1.50;78.00;;;;;;5036287;28;20045;-76
2023/01/25 02:19:14;;;;;;;48.67;33.73;;;1.50;78.10;;;;;;5036304;28;20099;-76
2023/01/25 02:21:44;;;;;;;49.87;33.13;;;1.60;78.30;;;;;;5035602;28;20033;-76
2023/01/25 02:24:22;;;;;;;47.90;32.53;;;1.60;78.30;;;;;;5052478;28;20070;-76
2023/01/25 02:26:48;;;;;;;47.33;31.73;;;1.70;78.10;;;;;;5035988;28;20091;-76
2023/01/25 02:29:15;;;;;;;47.40;31.37;;;1.60;77.90;;;;;;5036125;28;20048;-76
2023/01/25 02:31:44;;;;;;;47.00;31.80;;;1.70;78.10;;;;;;5036297;28;20040;-76
2023/01/25 02:34:10;;;;;;;45.53;32.40;;;1.70;78.40;;;;;;5036412;28;20128;-76
2023/01/25 02:36:36;;;;;;;46.07;31.63;;;1.70;78.50;;;;;;5035824;28;20551;-76
2023/01/25 02:39:04;;;;;;;46.17;31.73;;;1.80;78.70;;;;;;5035611;28;20064;-76
2023/01/25 02:41:37;;;;;;;48.77;32.97;;;1.80;78.80;;;;;;5052832;28;20037;-76
2023/01/25 02:44:15;;;;;;;43.37;30.20;;;1.80;78.90;;;;;;5035928;28;20040;-76
2023/01/25 02:46:46;;;;;;;44.27;29.77;;;1.90;79.00;;;;;;5052397;28;20037;-76
2023/01/25 02:49:13;;;;;;;42.37;30.50;;;1.90;79.00;;;;;;5052539;28;20045;-76
2023/01/25 02:51:41;;;;;;;45.00;31.90;;;2.00;79.50;;;;;;5035607;28;20120;-76
2023/01/25 02:54:09;;;;;;;43.37;31.23;;;2.00;79.00;;;;;;5052150;28;20396;-76
2023/01/25 02:56:36;;;;;;;41.13;30.27;;;2.00;79.00;;;;;;5052507;28;20101;-76
2023/01/25 02:59:04;;;;;;;40.33;29.00;;;2.10;79.10;;;;;;5019037;28;20124;-76
2023/01/25 03:01:38;;;;;;;41.47;28.83;;;2.30;79.20;;;;;;5051941;28;20040;-76
2023/01/25 03:04:04;;;;;;;42.80;30.13;;;2.10;78.90;;;;;;5051827;28;20043;-76
2023/01/25 03:06:31;;;;;;;43.10;30.20;;;2.10;78.80;;;;;;5035579;28;20118;-76
2023/01/25 03:08:57;;;;;;;42.97;30.20;;;2.40;78.80;;;;;;5052030;28;20053;-76
2023/01/25 03:11:22;;;;;;;41.93;29.90;;;2.20;78.60;;;;;;5035177;28;20064;-76
2023/01/25 03:13:48;;;;;;;42.87;30.30;;;2.20;78.60;;;;;;5051735;28;20049;-76
2023/01/25 03:16:15;;;;;;;38.80;28.10;;;2.30;78.60;;;;;;5052007;28;20511;-76
2023/01/25 03:18:41;;;;;;;42.57;31.03;;;2.30;78.60;;;;;;5052031;28;20072;-76
2023/01/25 03:21:14;;;;;;;41.33;28.97;;;2.30;78.20;;;;;;5052038;28;20044;-76
2023/01/25 03:23:40;;;;;;;39.20;27.70;;;2.30;77.60;;;;;;5051506;28;20032;-76
2023/01/25 03:26:12;;;;;;;37.57;27.70;;;2.30;77.70;;;;;;5035325;28;20454;-76
2023/01/25 03:28:40;;;;;;;39.33;27.80;;;2.30;77.60;;;;;;5051302;28;20526;-76
2023/01/25 03:31:07;;;;;;;40.27;29.17;;;2.30;77.60;;;;;;5052005;28;20394;-76
2023/01/25 03:33:33;;;;;;;40.37;28.90;;;2.40;77.70;;;;;;5055940;28;20051;-76
2023/01/25 03:36:00;;;;;;;38.20;28.33;;;2.40;77.50;;;;;;5055038;28;20094;-76
2023/01/25 03:38:26;;;;;;;35.63;27.27;;;2.40;76.90;;;;;;5071540;28;20563;-75
2023/01/25 03:40:51;;;;;;;37.57;27.70;;;2.40;76.70;;;;;;5069227;28;20116;-75
2023/01/25 03:43:17;;;;;;;35.33;26.43;;;2.30;76.50;;;;;;5034429;28;20201;-76
2023/01/25 03:45:43;;;;;;;37.20;27.63;;;2.30;76.40;;;;;;5051542;28;20037;-76
2023/01/25 03:48:09;;;;;;;38.53;27.40;;;2.30;76.20;;;;;;5051390;28;20048;-76
2023/01/25 03:50:35;;;;;;;35.83;27.23;;;2.30;76.10;;;;;;5051541;28;20044;-76
2023/01/25 03:53:05;;;;;;;35.40;26.30;;;2.30;75.80;;;;;;5051409;28;20044;-76
2023/01/25 03:55:32;;;;;;;38.33;27.67;;;2.20;75.80;;;;;;5052201;28;20048;-76
2023/01/25 03:57:58;;;;;;;34.73;26.23;;;2.20;75.90;;;;;;5034469;28;20607;-76
2023/01/25 04:00:23;;;;;;;37.33;28.23;;;2.30;75.90;;;;;;5034619;28;20040;-76
2023/01/25 04:02:49;;;;;;;38.17;26.90;;;2.20;76.00;;;;;;5051174;28;20045;-76
2023/01/25 04:05:15;;;;;;;39.07;27.47;;;2.20;76.10;;;;;;5051265;28;20041;-76
2023/01/25 04:07:40;;;;;;;39.30;26.50;;;2.20;76.20;;;;;;5034908;28;20037;-76
2023/01/25 04:10:07;;;;;;;38.47;27.37;;;2.20;76.10;;;;;;5051446;28;20401;-76
2023/01/25 04:12:32;;;;;;;39.47;28.10;;;2.20;76.20;;;;;;5034681;28;20469;-76
2023/01/25 04:14:58;;;;;;;39.97;29.03;;;2.30;76.50;;;;;;5050980;28;20115;-76
2023/01/25 04:17:24;;;;;;;35.63;26.67;;;2.20;76.60;;;;;;5034609;28;20041;-76
2023/01/25 04:19:49;;;;;;;35.90;27.53;;;2.20;76.70;;;;;;5034461;28;20095;-76
2023/01/25 04:22:15;;;;;;;37.40;27.83;;;2.30;76.90;;;;;;5034510;28;20044;-76
2023/01/25 04:24:41;;;;;;;37.23;26.63;;;2.30;77.00;;;;;;5050601;28;20041;-76
2023/01/25 04:27:07;;;;;;;38.27;26.67;;;2.30;77.10;;;;;;5034875;28;20044;-76
2023/01/25 04:29:34;;;;;;;35.67;26.10;;;2.30;77.20;;;;;;5018272;28;20128;-75
2023/01/25 04:32:00;;;;;;;37.27;27.93;;;2.40;77.30;;;;;;5050854;28;20041;-75
2023/01/25 04:34:25;;;;;;;37.20;27.47;;;2.40;77.20;;;;;;5034176;28;20174;-75
2023/01/25 04:36:51;;;;;;;39.20;28.33;;;2.40;77.30;;;;;;5050636;28;20439;-76
2023/01/25 04:39:17;;;;;;;37.57;28.67;;;2.40;77.20;;;;;;5050994;28;20407;-75
2023/01/25 04:41:43;;;;;;;36.87;27.33;;;2.50;77.30;;;;;;5034468;28;20045;-75
2023/01/25 04:44:08;;;;;;;37.50;27.90;;;2.50;77.40;;;;;;5035418;28;20132;-75
2023/01/25 04:46:34;;;;;;;37.03;27.30;;;2.40;77.30;;;;;;5038396;28;20124;-76
2023/01/25 04:49:00;;;;;;;38.20;27.17;;;2.50;77.40;;;;;;5038081;28;20453;-75
2023/01/25 04:51:25;;;;;;;41.10;28.87;;;2.50;77.30;;;;;;5037966;28;20041;-75
2023/01/25 04:53:51;;;;;;;39.13;28.33;;;2.80;77.50;;;;;;5037626;28;20132;-75
2023/01/25 04:56:17;;;;;;;39.53;28.77;;;2.50;77.20;;;;;;5054829;28;20045;-75
2023/01/25 04:58:42;;;;;;;40.33;28.40;;;2.50;76.90;;;;;;5054557;28;20081;-75
2023/01/25 05:01:09;;;;;;;38.30;27.40;;;2.50;76.80;;;;;;5037825;28;20071;-75
2023/01/25 05:03:34;;;;;;;37.23;26.53;;;2.50;76.70;;;;;;5054466;28;20426;-75
2023/01/25 05:06:00;;;;;;;37.50;26.80;;;2.50;76.70;;;;;;5054800;28;20041;-75
2023/01/25 05:08:26;;;;;;;36.72;26.85;;;2.50;76.70;;;;;;5037826;28;20048;-75
2023/01/25 05:10:51;;;;;;;39.08;28.65;;;2.50;76.60;;;;;;5053912;28;20052;-75
2023/01/25 05:13:17;;;;;;;41.47;30.13;;;2.50;76.30;;;;;;5054031;28;20059;-75
2023/01/25 05:15:43;;;;;;;39.93;28.23;;;2.50;76.10;;;;;;5017695;28;20088;-75
2023/01/25 05:18:09;;;;;;;38.10;28.23;;;2.50;76.10;;;;;;5052037;28;20076;-75
2023/01/25 05:20:35;;;;;;;37.83;27.87;;;2.60;76.20;;;;;;5037734;28;20041;-75
2023/01/25 05:23:00;;;;;;;35.00;26.47;;;2.50;76.20;;;;;;5053750;28;20041;-77
2023/01/25 05:28:10;;;;;;;39.55;28.63;;;2.50;76.10;;;;;;5039773;28;20495;-77
2023/01/25 05:30:36;;;;;;;41.43;29.00;;;2.50;76.10;;;;;;5037291;28;20059;-77
2023/01/25 05:33:02;;;;;;;39.83;29.07;;;2.50;76.00;;;;;;5054168;28;20126;-76
2023/01/25 05:35:27;;;;;;;37.63;27.73;;;2.50;76.00;;;;;;5054016;28;20052;-76
2023/01/25 05:37:57;;;;;;;40.00;27.97;;;2.50;76.10;;;;;;5037449;28;20037;-76
2023/01/25 05:40:24;;;;;;;39.50;27.98;;;2.50;76.20;;;;;;5053643;28;20037;-76
2023/01/25 05:42:57;;;;;;;35.90;26.30;;;2.50;76.30;;;;;;5052892;28;20124;-77
2023/01/25 05:45:23;;;;;;;40.70;28.20;;;2.50;76.40;;;;;;5037068;28;20033;-77
2023/01/25 05:47:53;;;;;;;39.43;29.10;;;2.50;76.50;;;;;;5053830;28;20040;-77
2023/01/25 05:50:20;;;;;;;38.53;26.90;;;2.50;76.70;;;;;;5021094;28;20062;-77
2023/01/25 05:52:46;;;;;;;40.17;28.38;;;2.60;77.20;;;;;;5036954;28;20033;-75
2023/01/25 05:55:12;;;;;;;36.83;26.73;;;2.50;76.80;;;;;;5035943;28;20037;-75
2023/01/25 05:57:37;;;;;;;39.00;28.00;;;2.60;76.90;;;;;;5036704;28;20040;-75
2023/01/25 06:00:05;;;;;;;37.73;27.73;;;2.60;77.00;;;;;;5015564;28;20041;-76
2023/01/25 06:02:31;;;;;;;38.85;28.20;;;2.60;77.00;;;;;;5052920;28;20037;-75
2023/01/25 06:04:57;;;;;;;38.65;28.23;;;2.60;77.00;;;;;;5036418;28;20657;-75
2023/01/25 06:07:23;;;;;;;42.43;30.10;;;2.70;77.10;;;;;;5053184;28;20126;-75
2023/01/25 06:09:48;;;;;;;38.92;27.25;;;2.60;77.00;;;;;;5036192;28;20118;-75
2023/01/25 06:12:15;;;;;;;39.28;27.63;;;2.80;77.00;;;;;;5016506;28;20060;-75
2023/01/25 06:14:41;;;;;;;37.25;27.48;;;2.70;77.00;;;;;;5020037;28;20040;-75
2023/01/25 06:17:07;;;;;;;40.67;29.70;;;2.70;77.00;;;;;;5053478;28;20404;-76
2023/01/25 06:19:33;;;;;;;41.13;29.40;;;2.70;77.00;;;;;;5052891;28;20048;-77
2023/01/25 06:21:58;;;;;;;40.13;29.15;;;2.70;77.00;;;;;;5052602;28;20036;-76
2023/01/25 06:24:24;;;;;;;39.05;28.02;;;2.70;76.80;;;;;;5059762;28;20044;-76
2023/01/25 06:26:50;;;;;;;39.50;28.02;;;2.70;76.80;;;;;;5036795;28;20041;-76
2023/01/25 06:29:15;;;;;;;40.87;30.03;;;2.70;76.80;;;;;;5035592;28;20036;-77
2023/01/25 06:31:41;;;;;;;42.63;29.20;;;2.80;76.80;;;;;;5052864;28;20044;-77
2023/01/25 06:34:07;;;;;;;38.87;28.40;;;2.70;76.80;;;;;;5052568;28;20053;-77
2023/01/25 06:36:33;;;;;;;41.43;29.37;;;2.70;76.80;;;;;;5052441;28;20082;-77
2023/01/25 06:38:59;;;;;;;42.50;31.30;;;2.70;76.90;;;;;;5034523;28;20484;-76
2023/01/25 06:41:25;;;;;;;44.20;31.00;;;2.70;76.90;;;;;;5034730;28;20037;-76
2023/01/25 06:43:51;;;;;;;44.20;30.95;;;2.70;76.90;;;;;;5035627;28;20040;-77
2023/01/25 06:46:17;;;;;;;41.47;28.80;;;2.70;76.80;;;;;;5052546;28;20072;-76
2023/01/25 06:48:43;;;;;;;43.40;30.13;;;2.80;76.80;;;;;;5035847;28;20503;-76
2023/01/25 06:51:11;;;;;;;43.13;30.00;;;2.70;76.70;;;;;;5052258;28;20072;-77
2023/01/25 06:53:40;;;;;;;43.60;29.67;;;2.80;76.70;;;;;;5035936;28;20056;-78
2023/01/25 06:56:14;;;;;;;40.97;28.90;;;2.70;76.70;;;;;;5052205;28;20040;-77
2023/01/25 06:58:40;;;;;;;41.50;27.60;;;2.70;76.40;;;;;;5035269;28;20047;-77
2023/01/25 07:01:15;;;;;;;42.33;29.38;;;2.70;76.50;;;;;;5048404;28;20028;-77
2023/01/25 07:03:41;;;;;;;41.70;28.65;;;2.70;76.40;;;;;;5052237;28;20036;-77
2023/01/25 07:06:09;;;;;;;39.85;28.48;;;2.70;76.40;;;;;;5052057;28;20045;-77
2023/01/25 07:08:36;;;;;;;39.97;28.05;;;2.80;76.60;;;;;;5035461;28;20451;-77
2023/01/25 07:11:04;;;;;;;39.97;28.47;;;2.70;76.40;;;;;;5051776;28;20065;-77
2023/01/25 07:13:32;;;;;;;40.47;28.60;;;2.70;76.30;;;;;;5051509;28;20052;-77
2023/01/25 07:16:04;;;;;;;39.97;27.97;;;2.70;76.40;;;;;;5034921;28;20044;-77
2023/01/25 07:18:31;;;;;;;41.95;27.10;;;2.70;76.30;;;;;;5051487;28;20115;-76
2023/01/25 07:21:21;;;;;;;40.30;27.67;;;2.70;76.30;;;;;;5035424;28;20048;-76
2023/01/25 07:23:48;;;;;;;39.33;27.83;;;2.70;76.20;;;;;;5035619;28;20049;-77
2023/01/25 07:26:22;;;;;;;41.73;28.57;;;2.70;76.20;;;;;;5051672;28;20117;-77
2023/01/25 07:28:49;;;;;;;39.92;26.88;;;2.70;76.20;;;;;;5052192;28;20064;-77
2023/01/25 07:31:16;;;;;;;43.08;28.77;;;2.70;76.30;;;;;;5051921;28;20106;-77
2023/01/25 07:33:42;;;;;;;38.78;26.83;;;2.70;76.30;;;;;;5052017;28;20048;-77
2023/01/25 07:36:09;;;;;;;38.38;26.73;;;2.80;76.40;;;;;;5034874;28;20041;-77
2023/01/25 07:38:36;;;;;;;44.33;29.23;;;2.70;76.40;;;;;;5051585;28;20041;-77
2023/01/25 07:41:02;;;;;;;37.00;25.95;;;2.70;76.30;;;;;;5035327;28;20154;-77
2023/01/25 07:43:29;;;;;;;40.07;27.63;;;2.70;76.30;;;;;;5051635;28;20036;-77
2023/01/25 07:46:07;;;;;;;38.15;26.83;;;2.80;76.30;;;;;;5035140;28;20037;-77
2023/01/25 07:48:33;;;;;;;39.70;27.40;;;2.80;76.30;;;;;;5035049;28;20139;-77
2023/01/25 07:53:45;;;;;;;40.03;27.65;;;2.70;76.60;;;;;;5051266;28;20488;-76
2023/01/25 07:56:11;;;;;;;38.53;26.57;;;2.70;76.20;;;;;;5034904;28;20128;-76
2023/01/25 07:58:37;;;;;;;40.60;28.23;;;2.70;76.10;;;;;;5051273;28;20087;-75
2023/01/25 08:01:14;;;;;;;42.43;28.13;;;2.80;76.20;;;;;;5051217;28;20069;-76
2023/01/25 08:03:40;;;;;;;39.57;27.57;;;2.70;76.20;;;;;;5050877;28;20036;-76
2023/01/25 08:06:07;;;;;;;41.65;28.65;;;2.80;76.30;;;;;;5034487;28;20098;-76
2023/01/25 08:08:35;;;;;;;40.03;26.73;;;2.80;76.40;;;;;;5034728;28;20511;-76
2023/01/25 08:11:13;;;;;;;39.63;26.47;;;2.70;76.30;;;;;;5034640;28;20107;-76
2023/01/25 08:13:39;;;;;;;38.77;27.33;;;2.70;76.30;;;;;;5051398;28;20075;-76
2023/01/25 08:16:05;;;;;;;41.25;28.05;;;2.80;76.50;;;;;;5034549;28;20044;-76
2023/01/25 08:18:31;;;;;;;41.80;28.42;;;2.80;76.40;;;;;;5034593;28;20037;-76
2023/01/25 08:21:00;;;;;;;42.85;29.83;;;2.70;76.40;;;;;;5038422;28;20048;-76
2023/01/25 08:23:27;;;;;;;40.93;27.23;;;2.70;76.40;;;;;;5039399;28;20040;-76
2023/01/25 08:25:53;;;;;;;42.93;29.70;;;2.70;76.30;;;;;;5038844;28;20041;-76
2023/01/25 08:28:18;;;;;;;41.17;27.77;;;2.80;76.40;;;;;;5038479;28;20048;-76
2023/01/25 08:30:44;;;;;;;41.17;27.70;;;2.80;76.30;;;;;;5038628;28;20041;-76
2023/01/25 08:33:10;;;;;;;42.55;28.02;;;2.70;76.30;;;;;;5038165;28;20041;-76
2023/01/25 08:35:36;;;;;;;38.50;27.03;;;2.70;76.30;;;;;;5038377;28;20085;-76
2023/01/25 08:38:02;;;;;;;43.13;27.80;;;2.70;76.30;;;;;;5038419;28;20048;-76
2023/01/25 08:40:28;;;;;;;42.45;27.90;;;2.80;76.30;;;;;;5055120;28;20029;-75
2023/01/25 08:42:54;;;;;;;40.03;27.43;;;2.70;76.10;;;;;;5038616;28;20503;-75
2023/01/25 08:45:19;;;;;;;39.77;26.60;;;2.80;76.30;;;;;;5038307;28;20514;-75
2023/01/25 08:47:45;;;;;;;41.53;28.33;;;2.70;76.10;;;;;;5054555;28;20447;-75
2023/01/25 08:50:11;;;;;;;38.47;26.50;;;2.70;76.50;;;;;;5054797;28;20041;-75
2023/01/25 08:52:36;;;;;;;39.50;25.98;;;2.70;76.20;;;;;;5054435;28;20045;-75
2023/01/25 08:55:03;;;;;;;38.28;25.60;;;2.70;76.20;;;;;;5038132;28;20041;-75
2023/01/25 08:57:29;;;;;;;40.85;26.55;;;2.70;76.20;;;;;;5021566;28;20143;-75
2023/01/25 08:59:55;;;;;;;39.47;26.20;;;2.70;76.20;;;;;;5054350;28;20041;-75
2023/01/25 09:02:21;;;;;;;37.53;25.48;;;3.00;76.30;;;;;;5054213;28;20369;-75
2023/01/25 09:04:47;;;;;;;37.88;26.00;;;2.70;76.00;;;;;;5037849;28;20345;-75
2023/01/25 09:07:12;;;;;;;38.13;25.38;;;2.70;76.10;;;;;;5054597;28;20073;-75
2023/01/25 09:09:38;;;;;;;38.42;26.02;;;2.70;76.50;;;;;;5054258;28;20490;-75
2023/01/25 09:12:04;;;;;;;40.10;26.92;;;2.80;76.00;;;;;;5037625;28;20060;-77
2023/01/25 09:14:30;;;;;;;40.47;26.67;;;2.70;75.90;;;;;;5037527;28;20040;-77
2023/01/25 09:16:55;;;;;;;40.00;25.80;;;2.70;76.00;;;;;;5037880;28;20404;-77
2023/01/25 09:19:21;;;;;;;37.60;26.17;;;2.70;76.00;;;;;;5037753;28;20175;-77
2023/01/25 09:21:47;;;;;;;37.15;24.83;;;2.70;76.00;;;;;;5021225;28;20037;-78
2023/01/25 09:24:13;;;;;;;36.23;24.27;;;2.70;76.10;;;;;;5054278;28;20048;-77
2023/01/25 09:26:41;;;;;;;37.60;25.13;;;2.80;76.20;;;;;;5053989;28;20123;-78
2023/01/25 09:29:08;;;;;;;37.55;24.40;;;2.80;76.20;;;;;;5037086;28;20564;-77
2023/01/25 09:31:35;;;;;;;41.73;26.83;;;2.80;76.10;;;;;;5037134;28;20047;-77
2023/01/25 09:34:01;;;;;;;39.42;25.58;;;2.80;76.20;;;;;;5037707;28;20416;-77
2023/01/25 09:36:27;;;;;;;36.00;24.63;;;2.80;76.10;;;;;;5054011;28;20091;-77
2023/01/25 09:38:54;;;;;;;40.93;26.40;;;2.80;76.10;;;;;;5037224;28;20083;-77
2023/01/25 09:41:47;;;;;;;40.60;25.80;;;2.80;76.20;;;;;;5037175;28;20033;-77
2023/01/25 09:44:33;;;;;;;39.67;25.57;;;2.70;76.20;;;;;;5053648;28;20136;-77
2023/01/25 09:47:03;;;;;;;41.20;26.47;;;2.70;76.20;;;;;;5053740;28;20072;-77
2023/01/25 09:49:41;;;;;;;39.27;24.87;;;2.70;76.20;;;;;;5037221;28;20392;-77
2023/01/25 09:52:42;;;;;;;38.83;25.27;;;2.70;76.30;;;;;;5037418;28;20377;-77
2023/01/25 09:55:17;;;;;;;36.88;24.48;;;2.70;76.30;;;;;;5036763;28;20036;-77
2023/01/25 09:57:45;;;;;;;42.37;26.37;;;2.80;76.90;;;;;;5037264;28;20631;-77
2023/01/25 10:00:16;;;;;;;39.70;25.52;;;2.70;76.40;;;;;;5036809;28;20439;-77
2023/01/25 10:02:52;;;;;;;41.92;25.52;;;2.70;76.40;;;;;;5036664;28;20070;-77
2023/01/25 10:05:27;;;;;;;38.92;24.90;;;2.80;76.50;;;;;;5053343;28;20044;-77
2023/01/25 10:08:13;;;;;;;39.80;24.52;;;2.80;76.50;;;;;;5053326;28;20044;-77
2023/01/25 10:10:42;;;;;;;38.20;24.65;;;2.80;76.60;;;;;;5053153;28;20523;-77
2023/01/25 10:13:14;;;;;;;40.15;25.30;;;3.00;76.70;;;;;;5036779;28;20178;-77
2023/01/25 10:15:46;;;;;;;44.88;27.15;;;2.80;76.70;;;;;;5053287;28;20037;-77
2023/01/25 10:18:26;;;;;;;40.57;25.40;;;2.80;76.70;;;;;;5053008;28;20499;-77
2023/01/25 10:20:59;;;;;;;44.23;26.57;;;2.80;76.60;;;;;;5053235;28;20099;-77
2023/01/25 10:24:01;;;;;;;41.85;25.95;;;2.80;76.60;;;;;;5017096;28;20076;-77
2023/01/25 10:26:31;;;;;;;40.57;25.67;;;2.80;76.60;;;;;;5033640;28;20447;-77
2023/01/25 10:29:00;;;;;;;41.53;26.97;;;3.00;76.80;;;;;;5035959;28;20098;-77
2023/01/25 10:31:33;;;;;;;40.05;26.13;;;2.80;76.70;;;;;;5053071;28;20094;-77
2023/01/25 10:34:11;;;;;;;41.17;26.70;;;2.90;76.70;;;;;;5036311;28;20041;-78
2023/01/25 10:36:38;;;;;;;44.77;26.53;;;2.90;76.70;;;;;;5036140;28;20074;-78
2023/01/25 10:39:06;;;;;;;46.05;26.80;;;2.90;76.70;;;;;;5036262;28;20037;-77
2023/01/25 10:41:43;;;;;;;43.53;27.93;;;2.90;76.70;;;;;;5052387;28;20045;-77
2023/01/25 10:44:27;;;;;;;42.97;26.33;;;2.90;76.70;;;;;;5052765;28;20119;-76
2023/01/25 10:47:18;;;;;;;43.28;26.35;;;2.90;76.70;;;;;;5052623;28;20527;-77
2023/01/25 10:49:52;;;;;;;46.75;29.13;;;2.90;76.70;;;;;;5052390;28;20051;-77
2023/01/25 10:52:27;;;;;;;48.88;27.90;;;2.90;76.70;;;;;;5052721;28;20423;-77
2023/01/25 10:55:22;;;;;;;43.72;25.65;;;2.90;76.70;;;;;;5052316;28;20528;-77
2023/01/25 10:57:50;;;;;;;41.20;24.83;;;2.90;76.80;;;;;;5052391;28;20124;-77
2023/01/25 11:00:34;;;;;;;41.35;26.02;;;2.90;76.80;;;;;;5052081;28;20468;-77
2023/01/25 11:03:00;;;;;;;47.85;27.02;;;3.00;76.90;;;;;;5030319;28;20041;-77
2023/01/25 11:05:29;;;;;;;42.85;26.38;;;3.00;76.90;;;;;;5041865;28;20033;-77
2023/01/25 11:07:56;;;;;;;42.08;26.40;;;3.20;77.00;;;;;;5055546;28;20048;-77
2023/01/25 11:10:32;;;;;;;45.15;26.65;;;3.20;77.30;;;;;;5058477;28;20040;-77
2023/01/25 11:13:18;;;;;;;45.47;28.23;;;3.00;76.70;;;;;;5051792;28;20210;-77
2023/01/25 11:15:47;;;;;;;46.33;27.40;;;3.10;76.80;;;;;;5035451;28;20370;-77
2023/01/25 11:18:27;;;;;;;43.38;25.58;;;3.00;76.60;;;;;;5051990;28;20037;-77
2023/01/25 11:21:15;;;;;;;46.00;26.50;;;3.10;76.60;;;;;;5035686;28;20406;-77
2023/01/25 11:23:41;;;;;;;42.83;26.38;;;3.00;76.60;;;;;;5052271;28;20388;-77
2023/01/25 11:26:15;;;;;;;48.72;27.75;;;3.10;76.80;;;;;;5052086;28;20045;-77
2023/01/25 11:28:43;;;;;;;42.58;26.00;;;3.00;76.70;;;;;;5051719;28;20040;-76
2023/01/25 11:31:13;;;;;;;43.35;26.58;;;3.00;76.60;;;;;;5035350;28;20420;-77
2023/01/25 11:33:40;;;;;;;43.08;26.15;;;3.00;76.50;;;;;;5035236;28;20130;-77
2023/01/25 11:36:24;;;;;;;43.50;26.08;;;3.00;76.50;;;;;;5051700;28;20124;-77
2023/01/25 11:39:02;;;;;;;44.80;26.67;;;3.00;76.50;;;;;;5051917;28;20474;-77
2023/01/25 11:41:36;;;;;;;44.58;26.95;;;3.00;76.60;;;;;;5034942;28;20495;-77
2023/01/25 11:44:39;;;;;;;34.15;18.98;;;3.10;76.80;;;;;;5049077;28;20447;-77
2023/01/25 11:47:18;;;;;;;43.08;24.60;;;3.00;76.70;;;;;;5035202;28;20049;-78
2023/01/25 11:50:11;;;;;;;45.55;24.88;;;3.00;76.80;;;;;;5051855;28;20431;-77
2023/01/25 11:52:53;;;;;;;42.67;24.57;;;3.10;76.80;;;;;;5051801;28;20388;-77
2023/01/25 11:55:30;;;;;;;40.77;23.87;;;3.10;76.80;;;;;;5051722;28;20049;-77
2023/01/25 11:58:10;;;;;;;42.35;25.60;;;3.10;76.80;;;;;;5055868;28;20045;-77
2023/01/25 12:00:42;;;;;;;46.35;25.92;;;3.00;76.70;;;;;;5071719;28;20029;-77
2023/01/25 12:03:23;;;;;;;48.53;26.38;;;3.10;76.70;;;;;;5054667;28;20040;-78
2023/01/25 12:05:58;;;;;;;44.65;25.23;;;3.10;76.80;;;;;;5071473;28;20037;-77
2023/01/25 12:08:49;;;;;;;41.95;24.15;;;3.10;76.70;;;;;;5054752;28;20044;-77
2023/01/25 12:11:27;;;;;;;46.22;26.88;;;3.10;76.70;;;;;;5035051;28;20144;-77
2023/01/25 12:14:03;;;;;;;43.75;24.88;;;3.10;76.70;;;;;;5051338;28;20132;-77
2023/01/25 12:16:28;;;;;;;45.03;25.65;;;3.10;76.60;;;;;;5034980;28;20381;-77
2023/01/25 12:19:12;;;;;;;49.05;28.75;;;3.20;76.60;;;;;;5034799;28;20132;-77
2023/01/25 12:22:05;;;;;;;52.47;30.73;;;3.10;76.50;;;;;;5051010;28;20036;-77
2023/01/25 12:24:49;;;;;;;55.80;29.95;;;3.20;76.50;;;;;;5050723;28;20044;-77
2023/01/25 12:27:30;;;;;;;51.30;29.25;;;3.20;76.60;;;;;;5051242;28;20102;-77
2023/01/25 12:30:03;;;;;;;51.40;28.23;;;3.20;76.50;;;;;;5051397;28;20041;-77
2023/01/25 12:32:31;;;;;;;47.53;26.67;;;3.20;76.50;;;;;;5050884;28;20048;-78
2023/01/25 12:35:29;;;;;;;51.50;28.77;;;3.20;76.50;;;;;;5051040;28;20128;-78
2023/01/25 12:38:01;;;;;;;50.42;28.70;;;3.20;76.40;;;;;;5049825;28;20036;-77
2023/01/25 12:41:08;;;;;;;46.78;26.80;;;3.20;76.40;;;;;;5038336;28;20053;-78
2023/01/25 12:43:43;;;;;;;45.47;27.52;;;3.20;76.20;;;;;;5014006;28;20421;-78
2023/01/25 12:46:16;;;;;;;49.25;26.52;;;3.20;76.30;;;;;;5031441;28;20041;-78
2023/01/25 12:48:49;;;;;;;45.17;26.35;;;3.20;76.20;;;;;;5031376;28;20042;-78
2023/01/25 12:51:16;;;;;;;43.85;26.30;;;3.20;76.20;;;;;;5031273;28;20424;-78
2023/01/25 12:53:46;;;;;;;48.90;27.20;;;3.20;76.20;;;;;;5014734;28;20045;-78
2023/01/25 12:56:33;;;;;;;48.55;27.80;;;3.20;76.20;;;;;;5031047;28;20084;-78